Time;durP1;ratioP1;P1;durP2;ratioP2;P2;SDS_P1;SDS_P2;PMS_P1;PMS_P2;Temp;Humidity;BMP_temperature;BMP_pressure;BME280_temperature;BME280_humidity;BME280_pressure;Samples;Min_cycle;Max_cycle;Signal;HPM_P1;HPM_P2
2022/07/26 00:01:18;;;;;;;9.23;8.27;;;;;;;;;;5082557;28;20043;-84
2022/07/26 00:03:44;;;;;;;16.65;8.95;;;;;;;;;;5076840;28;20430;-83
2022/07/26 00:06:10;;;;;;;10.70;8.85;;;;;;;;;;5081312;28;20158;-84
2022/07/26 00:08:35;;;;;;;10.80;9.70;;;;;;;;;;5064268;28;20095;-84
2022/07/26 00:11:01;;;;;;;10.73;8.77;;;;;;;;;;5083997;28;20017;-84
2022/07/26 00:13:26;;;;;;;10.38;8.98;;;;;;;;;;5085370;28;20032;-84
2022/07/26 00:15:53;;;;;;;9.73;8.73;;;;;;;;;;5076134;28;20035;-85
2022/07/26 00:18:19;;;;;;;8.90;7.47;;;;;;;;;;5062443;28;20051;-84
2022/07/26 00:20:45;;;;;;;9.50;8.00;;;;;;;;;;5091224;28;20075;-85
2022/07/26 00:23:11;;;;;;;8.40;7.57;;;;;;;;;;5088424;28;20024;-84
2022/07/26 00:25:37;;;;;;;10.00;7.57;;;;;;;;;;5085143;28;20090;-85
2022/07/26 00:28:02;;;;;;;7.97;7.18;;;;;;;;;;5088633;28;20025;-86
2022/07/26 00:30:28;;;;;;;8.60;7.60;;;;;;;;;;5086583;28;20028;-84
2022/07/26 00:32:53;;;;;;;8.65;7.50;;;;;;;;;;5086909;28;20043;-87
2022/07/26 00:35:20;;;;;;;8.50;7.45;;;;;;;;;;5067116;28;20020;-86
2022/07/26 00:37:45;;;;;;;7.60;6.82;;;;;;;;;;5103340;28;20068;-85
2022/07/26 00:40:12;;;;;;;8.15;7.18;;;;;;;;;;5086402;28;20055;-86
2022/07/26 00:42:38;;;;;;;8.63;7.43;;;;;;;;;;5061958;28;20449;-85
2022/07/26 00:45:05;;;;;;;7.97;6.72;;;;;;;;;;5083855;28;20056;-87
2022/07/26 00:47:30;;;;;;;9.60;7.05;;;;;;;;;;5087522;28;20032;-87
2022/07/26 00:49:56;;;;;;;8.57;7.10;;;;;;;;;;5083528;28;20024;-86
2022/07/26 00:52:21;;;;;;;8.75;7.18;;;;;;;;;;5088590;28;20077;-87
2022/07/26 00:54:47;;;;;;;8.48;7.00;;;;;;;;;;5073827;28;20066;-87
2022/07/26 00:57:14;;;;;;;7.65;6.40;;;;;;;;;;5067166;28;20028;-87
2022/07/26 00:59:40;;;;;;;7.00;6.05;;;;;;;;;;5083277;28;20024;-86
2022/07/26 01:02:07;;;;;;;8.20;6.55;;;;;;;;;;5073081;28;20476;-85
2022/07/26 01:04:33;;;;;;;7.72;6.60;;;;;;;;;;5086365;28;20689;-86
2022/07/26 01:06:59;;;;;;;8.30;7.28;;;;;;;;;;5073306;28;20107;-86
2022/07/26 01:09:26;;;;;;;7.97;6.93;;;;;;;;;;5063656;28;20043;-87
2022/07/26 01:11:51;;;;;;;7.60;6.45;;;;;;;;;;5070618;28;20028;-88
2022/07/26 01:14:22;;;;;;;7.90;7.00;;;;;;;;;;5097742;28;20366;-87
2022/07/26 01:16:48;;;;;;;7.22;6.43;;;;;;;;;;5091933;28;20498;-87
2022/07/26 01:19:13;;;;;;;7.57;5.82;;;;;;;;;;5073025;28;20040;-86
2022/07/26 01:21:39;;;;;;;8.43;6.75;;;;;;;;;;5070526;28;20085;-85
2022/07/26 01:24:05;;;;;;;7.28;6.57;;;;;;;;;;5087089;28;20028;-86
2022/07/26 01:26:31;;;;;;;7.40;6.57;;;;;;;;;;5067878;28;20116;-85
2022/07/26 01:28:56;;;;;;;8.35;6.93;;;;;;;;;;5106841;28;20051;-85
2022/07/26 01:31:21;;;;;;;9.50;7.28;;;;;;;;;;5088435;28;20113;-86
2022/07/26 01:33:47;;;;;;;9.35;7.28;;;;;;;;;;5079035;28;20070;-86
2022/07/26 01:36:13;;;;;;;8.25;7.03;;;;;;;;;;5064560;28;20024;-86
2022/07/26 01:38:40;;;;;;;8.55;6.65;;;;;;;;;;5061914;28;20020;-85
2022/07/26 01:41:05;;;;;;;7.78;6.93;;;;;;;;;;5081430;28;20035;-85
2022/07/26 01:43:31;;;;;;;8.25;7.13;;;;;;;;;;5090756;28;20103;-85
2022/07/26 01:45:56;;;;;;;7.15;6.30;;;;;;;;;;5064291;28;20024;-84
2022/07/26 01:48:22;;;;;;;7.60;6.40;;;;;;;;;;5070632;28;20028;-84
2022/07/26 01:50:48;;;;;;;7.75;6.95;;;;;;;;;;5069072;28;20036;-85
2022/07/26 01:53:13;;;;;;;8.75;7.20;;;;;;;;;;5080797;28;20024;-84
2022/07/26 01:55:38;;;;;;;8.23;6.75;;;;;;;;;;5083472;28;20142;-85
2022/07/26 01:58:05;;;;;;;7.30;6.60;;;;;;;;;;5076716;28;20060;-84
2022/07/26 02:00:31;;;;;;;8.80;6.57;;;;;;;;;;5062790;28;20464;-85
2022/07/26 02:02:57;;;;;;;8.15;7.25;;;;;;;;;;5080929;28;20078;-85
2022/07/26 02:05:22;;;;;;;7.53;6.72;;;;;;;;;;5085594;28;20060;-85
2022/07/26 02:07:48;;;;;;;6.93;6.18;;;;;;;;;;5087400;28;20103;-85
2022/07/26 02:10:14;;;;;;;10.02;7.32;;;;;;;;;;5088613;28;20036;-85
2022/07/26 02:12:40;;;;;;;8.15;7.18;;;;;;;;;;5085700;28;20031;-84
2022/07/26 02:15:06;;;;;;;7.95;7.10;;;;;;;;;;5086022;28;20023;-85
2022/07/26 02:17:32;;;;;;;7.88;7.07;;;;;;;;;;5075469;28;20024;-86
2022/07/26 02:19:57;;;;;;;7.20;6.47;;;;;;;;;;5066805;28;20028;-84
2022/07/26 02:22:23;;;;;;;8.38;7.03;;;;;;;;;;5083992;28;20031;-85
2022/07/26 02:24:49;;;;;;;7.68;6.85;;;;;;;;;;5082113;28;20487;-85
2022/07/26 02:27:15;;;;;;;7.68;6.88;;;;;;;;;;5089619;28;20548;-84
2022/07/26 02:29:40;;;;;;;9.38;6.80;;;;;;;;;;5088657;28;20056;-84
2022/07/26 02:32:06;;;;;;;8.10;7.10;;;;;;;;;;5078105;28;20024;-84
2022/07/26 02:34:32;;;;;;;8.85;6.97;;;;;;;;;;5083067;28;20380;-83
2022/07/26 02:36:58;;;;;;;8.88;7.05;;;;;;;;;;5086841;28;20028;-85
2022/07/26 02:39:29;;;;;;;7.75;6.95;;;;;;;;;;5065205;28;20025;-84
2022/07/26 02:41:57;;;;;;;8.68;7.78;;;;;;;;;;5086128;28;20396;-85
2022/07/26 02:44:24;;;;;;;7.80;6.90;;;;;;;;;;5068090;28;20036;-84
2022/07/26 02:46:49;;;;;;;8.20;7.20;;;;;;;;;;5078864;28;20039;-83
2022/07/26 02:49:14;;;;;;;8.00;7.13;;;;;;;;;;5090921;28;20031;-85
2022/07/26 02:51:40;;;;;;;7.68;6.78;;;;;;;;;;5058211;28;20033;-84
2022/07/26 02:54:05;;;;;;;11.23;7.20;;;;;;;;;;5083825;28;20044;-86
2022/07/26 02:56:31;;;;;;;9.75;7.50;;;;;;;;;;5059021;28;20063;-85
2022/07/26 02:58:57;;;;;;;9.63;7.63;;;;;;;;;;5080937;28;20034;-85
2022/07/26 03:01:22;;;;;;;8.25;7.45;;;;;;;;;;5079778;28;20024;-86
2022/07/26 03:03:50;;;;;;;8.45;7.38;;;;;;;;;;5067725;28;20063;-86
2022/07/26 03:06:17;;;;;;;7.90;7.10;;;;;;;;;;5069250;28;20024;-86
2022/07/26 03:08:42;;;;;;;7.95;7.05;;;;;;;;;;5073471;28;20442;-85
2022/07/26 03:11:08;;;;;;;8.05;6.93;;;;;;;;;;5088899;28;20070;-85
2022/07/26 03:13:40;;;;;;;9.27;7.00;;;;;;;;;;5083693;28;20116;-85
2022/07/26 03:16:06;;;;;;;9.77;8.68;;;;;;;;;;5068723;28;20390;-84
2022/07/26 03:18:32;;;;;;;8.23;7.20;;;;;;;;;;5081808;28;20108;-85
2022/07/26 03:20:58;;;;;;;7.50;6.75;;;;;;;;;;5081158;28;20127;-84
2022/07/26 03:23:23;;;;;;;8.70;7.68;;;;;;;;;;5065078;28;20059;-85
2022/07/26 03:25:48;;;;;;;10.27;7.53;;;;;;;;;;5086016;28;20042;-88
2022/07/26 03:28:14;;;;;;;8.88;7.55;;;;;;;;;;5064672;28;20028;-85
2022/07/26 03:30:39;;;;;;;8.63;7.55;;;;;;;;;;5082250;28;20024;-84
2022/07/26 03:33:05;;;;;;;10.07;7.70;;;;;;;;;;5087298;28;20445;-88
2022/07/26 03:35:30;;;;;;;10.68;8.30;;;;;;;;;;5079064;28;20027;-87
2022/07/26 03:37:55;;;;;;;9.82;7.90;;;;;;;;;;5076956;28;20028;-86
2022/07/26 03:40:21;;;;;;;10.32;7.88;;;;;;;;;;5079920;28;20021;-86
2022/07/26 03:42:47;;;;;;;8.30;7.10;;;;;;;;;;5083139;28;20039;-85
2022/07/26 03:45:14;;;;;;;8.35;7.45;;;;;;;;;;5081818;28;20026;-86
2022/07/26 03:47:39;;;;;;;8.15;7.25;;;;;;;;;;5087233;28;20561;-86
2022/07/26 03:50:06;;;;;;;9.35;6.93;;;;;;;;;;5063364;28;20032;-85
2022/07/26 03:52:32;;;;;;;10.35;7.80;;;;;;;;;;5083655;28;20396;-85
2022/07/26 03:54:57;;;;;;;8.43;7.57;;;;;;;;;;5083780;28;20039;-85
2022/07/26 03:57:24;;;;;;;9.90;7.78;;;;;;;;;;5059858;28;20032;-85
2022/07/26 03:59:49;;;;;;;8.57;7.53;;;;;;;;;;5078688;28;20469;-86
2022/07/26 04:02:15;;;;;;;9.88;6.93;;;;;;;;;;5075117;28;20029;-85
2022/07/26 04:04:41;;;;;;;11.35;7.93;;;;;;;;;;5077640;28;20089;-85
2022/07/26 04:07:09;;;;;;;8.73;7.45;;;;;;;;;;5083018;28;20035;-85
2022/07/26 04:09:34;;;;;;;9.90;8.90;;;;;;;;;;5081866;28;20496;-85
2022/07/26 04:12:00;;;;;;;9.40;8.40;;;;;;;;;;5065632;28;20028;-85
2022/07/26 04:14:25;;;;;;;9.30;8.38;;;;;;;;;;5080930;28;20444;-86
2022/07/26 04:16:50;;;;;;;11.50;8.65;;;;;;;;;;5070337;28;20097;-86
2022/07/26 04:19:16;;;;;;;9.90;8.25;;;;;;;;;;5090547;28;20349;-84
2022/07/26 04:21:41;;;;;;;10.88;8.70;;;;;;;;;;5090756;28;20039;-84
2022/07/26 04:24:07;;;;;;;10.80;8.88;;;;;;;;;;5064814;28;20503;-85
2022/07/26 04:26:33;;;;;;;9.63;8.57;;;;;;;;;;5068779;28;20463;-86
2022/07/26 04:28:58;;;;;;;8.73;7.82;;;;;;;;;;5084504;28;20027;-86
2022/07/26 04:31:24;;;;;;;9.75;8.68;;;;;;;;;;5079896;28;20025;-83
2022/07/26 04:33:50;;;;;;;9.48;8.48;;;;;;;;;;5086704;28;20100;-83
2022/07/26 04:36:16;;;;;;;9.70;8.70;;;;;;;;;;5084092;28;20475;-83
2022/07/26 04:38:41;;;;;;;10.00;8.02;;;;;;;;;;5088489;28;20024;-83
2022/07/26 04:41:07;;;;;;;10.70;8.82;;;;;;;;;;5061337;28;20032;-85
2022/07/26 04:43:32;;;;;;;11.00;8.93;;;;;;;;;;5087326;28;20024;-81
2022/07/26 04:45:59;;;;;;;10.23;8.82;;;;;;;;;;5082539;28;20021;-81
2022/07/26 04:48:24;;;;;;;10.32;9.20;;;;;;;;;;5084561;28;20486;-82
2022/07/26 04:50:50;;;;;;;11.05;8.40;;;;;;;;;;5086976;28;20055;-85
2022/07/26 04:53:16;;;;;;;10.48;9.38;;;;;;;;;;5085254;28;20033;-82
2022/07/26 04:55:41;;;;;;;10.80;8.95;;;;;;;;;;5062798;28;20103;-82
2022/07/26 04:58:07;;;;;;;11.50;9.07;;;;;;;;;;5088687;28;20505;-83
2022/07/26 05:00:33;;;;;;;15.05;8.68;;;;;;;;;;5087534;28;20056;-82
2022/07/26 05:03:00;;;;;;;12.75;9.85;;;;;;;;;;5085568;28;20032;-83
2022/07/26 05:05:28;;;;;;;11.23;9.50;;;;;;;;;;5085410;28;20082;-82
2022/07/26 05:07:57;;;;;;;10.70;9.60;;;;;;;;;;5098682;28;20021;-84
2022/07/26 05:10:28;;;;;;;11.15;9.63;;;;;;;;;;5085270;28;20027;-81
2022/07/26 05:12:53;;;;;;;11.90;9.80;;;;;;;;;;5079416;28;20021;-81
2022/07/26 05:15:19;;;;;;;13.60;9.85;;;;;;;;;;5066664;28;20450;-82
2022/07/26 05:17:44;;;;;;;14.38;10.73;;;;;;;;;;5077607;28;20036;-83
2022/07/26 05:20:13;;;;;;;14.93;11.35;;;;;;;;;;5078271;28;20040;-83
2022/07/26 05:22:39;;;;;;;12.57;11.27;;;;;;;;;;5062236;28;20050;-83
2022/07/26 05:25:19;;;;;;;13.10;10.48;;;;;;;;;;5052380;28;20408;-81
2022/07/26 05:27:45;;;;;;;13.85;10.98;;;;;;;;;;5083674;28;20032;-81
2022/07/26 05:30:10;;;;;;;13.07;11.32;;;;;;;;;;5061652;28;20025;-83
2022/07/26 05:32:36;;;;;;;13.80;10.88;;;;;;;;;;5077605;28;20029;-82
2022/07/26 05:35:02;;;;;;;17.20;12.60;;;;;;;;;;5072488;28;20032;-83
2022/07/26 05:37:28;;;;;;;15.60;12.60;;;;;;;;;;5083662;28;20036;-82
2022/07/26 05:39:53;;;;;;;18.55;11.13;;;;;;;;;;5080664;28;20020;-81
2022/07/26 05:42:18;;;;;;;14.93;11.30;;;;;;;;;;5081345;28;20023;-79
2022/07/26 06:03:50;;;;;;;15.05;12.43;;;;;;;;;;5134911;27;20892;-79
2022/07/26 06:06:16;;;;;;;15.05;11.77;;;;;;;;;;5084633;28;20036;-80
2022/07/26 06:08:41;;;;;;;17.75;12.13;;;;;;;;;;5091121;28;20051;-81
2022/07/26 06:11:07;;;;;;;15.52;11.60;;;;;;;;;;5079829;28;20040;-81
2022/07/26 06:13:32;;;;;;;16.25;13.20;;;;;;;;;;5084506;28;20379;-80
2022/07/26 06:15:58;;;;;;;14.75;11.57;;;;;;;;;;5090601;28;20032;-79
2022/07/26 06:18:23;;;;;;;13.45;11.82;;;;;;;;;;5088417;28;20028;-80
2022/07/26 06:20:49;;;;;;;16.35;11.13;;;;;;;;;;5081466;28;20020;-79
2022/07/26 06:23:14;;;;;;;15.75;11.60;;;;;;;;;;5088122;28;20039;-82
2022/07/26 06:25:43;;;;;;;12.70;11.23;;;;;;;;;;5090133;28;20058;-80
2022/07/26 06:28:09;;;;;;;13.85;10.63;;;;;;;;;;5085182;28;20030;-80
2022/07/26 06:30:38;;;;;;;16.63;11.80;;;;;;;;;;5087767;28;20107;-81
2022/07/26 06:33:05;;;;;;;12.00;10.80;;;;;;;;;;5089212;28;20066;-81
2022/07/26 06:35:31;;;;;;;12.23;10.65;;;;;;;;;;5080429;28;20534;-80
2022/07/26 06:37:59;;;;;;;16.33;11.63;;;;;;;;;;5083849;28;20108;-81
2022/07/26 06:40:25;;;;;;;12.50;10.77;;;;;;;;;;5083084;28;20550;-81
2022/07/26 06:42:51;;;;;;;13.95;10.57;;;;;;;;;;5089601;28;20112;-82
2022/07/26 06:45:17;;;;;;;13.13;11.82;;;;;;;;;;5085812;28;20028;-82
2022/07/26 06:47:42;;;;;;;13.57;11.07;;;;;;;;;;5082559;28;20028;-80
2022/07/26 06:50:08;;;;;;;15.70;10.75;;;;;;;;;;5090829;28;20036;-82
2022/07/26 06:52:33;;;;;;;12.60;10.80;;;;;;;;;;5086543;28;20030;-80
2022/07/26 06:55:00;;;;;;;12.52;10.88;;;;;;;;;;5085116;28;20429;-81
2022/07/26 06:57:26;;;;;;;17.45;14.38;;;;;;;;;;5085129;28;20028;-81
2022/07/26 06:59:51;;;;;;;22.40;19.85;;;;;;;;;;5082647;28;20031;-81
2022/07/26 07:02:17;;;;;;;14.70;11.30;;;;;;;;;;5093757;28;20119;-82
2022/07/26 07:04:43;;;;;;;18.10;11.32;;;;;;;;;;5072652;28;20103;-82
2022/07/26 07:07:08;;;;;;;12.68;11.02;;;;;;;;;;5080175;28;20032;-82
2022/07/26 07:09:34;;;;;;;12.68;11.02;;;;;;;;;;5079689;28;20020;-81
2022/07/26 07:12:01;;;;;;;16.10;11.02;;;;;;;;;;5080705;28;20028;-80
2022/07/26 07:14:27;;;;;;;12.77;11.57;;;;;;;;;;5079311;28;20380;-81
2022/07/26 07:16:52;;;;;;;14.32;12.20;;;;;;;;;;5083584;28;20031;-81
2022/07/26 07:19:18;;;;;;;15.55;11.57;;;;;;;;;;5078664;28;20020;-81
2022/07/26 07:21:43;;;;;;;12.90;10.38;;;;;;;;;;5078440;28;20027;-81
2022/07/26 07:24:09;;;;;;;14.20;11.38;;;;;;;;;;5084539;28;20024;-80
2022/07/26 07:26:34;;;;;;;12.95;11.65;;;;;;;;;;5072904;28;20124;-81
2022/07/26 07:28:59;;;;;;;15.63;11.18;;;;;;;;;;5075535;28;20077;-81
2022/07/26 07:31:25;;;;;;;13.43;12.02;;;;;;;;;;5073538;28;20028;-81
2022/07/26 07:33:51;;;;;;;14.43;12.05;;;;;;;;;;5076117;28;20435;-81
2022/07/26 07:36:16;;;;;;;12.73;11.25;;;;;;;;;;5077486;28;20503;-81
2022/07/26 07:38:43;;;;;;;17.70;12.10;;;;;;;;;;5077167;28;20117;-80
2022/07/26 07:41:09;;;;;;;14.18;11.50;;;;;;;;;;5078715;28;20379;-81
2022/07/26 07:43:34;;;;;;;17.75;11.70;;;;;;;;;;5080313;28;20111;-81
2022/07/26 07:46:00;;;;;;;12.85;11.52;;;;;;;;;;5081697;28;20115;-82
2022/07/26 07:48:25;;;;;;;13.40;11.60;;;;;;;;;;5078417;28;20028;-82
2022/07/26 07:50:51;;;;;;;27.88;20.95;;;;;;;;;;5074768;28;20379;-81
2022/07/26 07:53:16;;;;;;;15.32;12.68;;;;;;;;;;5069117;28;20025;-81
2022/07/26 07:55:42;;;;;;;14.05;12.13;;;;;;;;;;5079373;28;20032;-80
2022/07/26 07:58:07;;;;;;;15.55;12.25;;;;;;;;;;5075240;28;20112;-79
2022/07/26 08:00:32;;;;;;;15.55;12.38;;;;;;;;;;5080812;28;20103;-80
2022/07/26 08:02:58;;;;;;;16.08;13.55;;;;;;;;;;5075708;28;20040;-80
2022/07/26 08:05:23;;;;;;;15.68;11.82;;;;;;;;;;5072818;28;20434;-80
2022/07/26 08:07:49;;;;;;;14.52;11.00;;;;;;;;;;5079475;28;20052;-80
2022/07/26 08:10:15;;;;;;;13.38;11.70;;;;;;;;;;5076715;28;20081;-81
2022/07/26 08:12:41;;;;;;;13.93;11.10;;;;;;;;;;5073874;28;20109;-80
2022/07/26 08:15:07;;;;;;;15.77;12.05;;;;;;;;;;5070751;28;20075;-80
2022/07/26 08:17:33;;;;;;;19.25;12.57;;;;;;;;;;5079887;28;20208;-80
2022/07/26 08:19:59;;;;;;;12.05;10.88;;;;;;;;;;5081274;28;20112;-81
2022/07/26 08:22:24;;;;;;;17.52;11.10;;;;;;;;;;5075241;28;20496;-81
2022/07/26 08:24:51;;;;;;;13.07;11.57;;;;;;;;;;5075389;28;20033;-80
2022/07/26 08:27:16;;;;;;;15.07;13.18;;;;;;;;;;5078599;28;20073;-82
2022/07/26 08:29:42;;;;;;;15.65;13.20;;;;;;;;;;5076271;28;20024;-81
2022/07/26 08:32:07;;;;;;;16.80;11.93;;;;;;;;;;5075185;28;20043;-80
2022/07/26 08:34:33;;;;;;;13.10;11.63;;;;;;;;;;5069781;28;20059;-81
2022/07/26 08:36:58;;;;;;;11.80;10.57;;;;;;;;;;5074645;28;20074;-80
2022/07/26 08:39:23;;;;;;;13.95;11.40;;;;;;;;;;5074470;28;20031;-80
2022/07/26 08:41:49;;;;;;;12.82;11.57;;;;;;;;;;5073139;28;20016;-82
2022/07/26 08:44:14;;;;;;;15.63;11.63;;;;;;;;;;5075272;28;20044;-80
2022/07/26 08:46:41;;;;;;;13.18;11.10;;;;;;;;;;5081946;28;20028;-79
2022/07/26 08:49:08;;;;;;;12.40;10.90;;;;;;;;;;5077749;28;20437;-80
2022/07/26 08:51:37;;;;;;;12.55;11.10;;;;;;;;;;5066398;28;20028;-81
2022/07/26 08:54:02;;;;;;;15.52;11.77;;;;;;;;;;5075342;28;20067;-81
2022/07/26 08:56:28;;;;;;;12.90;10.80;;;;;;;;;;5072804;28;20048;-81
2022/07/26 08:58:54;;;;;;;11.90;10.80;;;;;;;;;;5072485;28;20016;-81
2022/07/26 09:01:19;;;;;;;12.80;10.77;;;;;;;;;;5073958;28;20479;-82
2022/07/26 09:03:45;;;;;;;11.25;10.13;;;;;;;;;;5069121;28;20029;-81
2022/07/26 09:06:21;;;;;;;11.00;10.00;;;;;;;;;;5071118;28;20056;-80
2022/07/26 09:08:51;;;;;;;12.30;10.30;;;;;;;;;;5065294;28;20035;-82
2022/07/26 09:11:22;;;;;;;11.10;10.00;;;;;;;;;;5075977;28;20035;-82
2022/07/26 09:13:53;;;;;;;11.60;9.60;;;;;;;;;;5078053;28;20035;-81
2022/07/26 09:16:18;;;;;;;10.10;9.10;;;;;;;;;;5074159;28;20032;-81
2022/07/26 09:18:44;;;;;;;12.68;10.63;;;;;;;;;;5072813;28;20024;-83
2022/07/26 09:21:30;;;;;;;10.82;9.68;;;;;;;;;;5074480;28;20113;-82
2022/07/26 09:23:56;;;;;;;13.70;9.70;;;;;;;;;;5069239;28;20085;-82
2022/07/26 09:26:22;;;;;;;12.63;10.48;;;;;;;;;;5076689;28;20484;-82
2022/07/26 09:29:20;;;;;;;11.35;10.15;;;;;;;;;;5076239;28;20026;-82
2022/07/26 09:31:46;;;;;;;10.82;9.73;;;;;;;;;;5071866;28;20036;-84
2022/07/26 09:34:11;;;;;;;10.05;8.63;;;;;;;;;;5077355;28;20169;-83
2022/07/26 09:36:53;;;;;;;11.13;9.25;;;;;;;;;;5066860;28;20115;-84
2022/07/26 09:39:19;;;;;;;13.50;9.95;;;;;;;;;;5077226;28;20040;-84
2022/07/26 09:41:44;;;;;;;13.23;9.55;;;;;;;;;;5078734;28;20380;-84
2022/07/26 09:44:24;;;;;;;10.82;9.82;;;;;;;;;;5079912;28;20035;-85
2022/07/26 09:46:53;;;;;;;;;;;;;;;;;;5073713;28;20029;-83
2022/07/26 09:49:20;;;;;;;;;;;;;;;;;;5076767;28;19919;-83
2022/07/26 09:51:48;;;;;;;11.05;9.70;;;;;;;;;;5071746;28;20359;-84
2022/07/26 09:54:31;;;;;;;10.48;9.45;;;;;;;;;;5076322;28;20042;-84
2022/07/26 09:56:57;;;;;;;12.23;10.70;;;;;;;;;;5077838;28;20028;-86
2022/07/26 09:59:24;;;;;;;11.88;10.63;;;;;;;;;;5075029;28;20494;-83
2022/07/26 10:01:52;;;;;;;13.98;10.85;;;;;;;;;;5072470;28;20575;-83
2022/07/26 10:04:19;;;;;;;11.20;10.07;;;;;;;;;;5075826;28;20030;-84
2022/07/26 10:06:44;;;;;;;17.00;10.90;;;;;;;;;;5065716;28;20028;-84
2022/07/26 10:09:11;;;;;;;12.00;10.68;;;;;;;;;;5080327;28;20030;-84
2022/07/26 10:12:04;;;;;;;11.60;10.27;;;;;;;;;;5072254;28;20090;-82
2022/07/26 10:14:33;;;;;;;11.10;10.10;;;;;;;;;;5077000;28;20020;-85
2022/07/26 10:17:00;;;;;;;11.15;10.00;;;;;;;;;;5080713;28;20444;-85
2022/07/26 10:19:40;;;;;;;11.43;10.32;;;;;;;;;;5069466;28;20099;-85
2022/07/26 10:22:25;;;;;;;11.10;10.02;;;;;;;;;;5076434;28;20033;-85
2022/07/26 10:24:53;;;;;;;10.60;9.60;;;;;;;;;;5074290;28;20050;-84
2022/07/26 10:27:37;;;;;;;12.48;10.20;;;;;;;;;;5067594;28;20515;-82
2022/07/26 10:30:15;;;;;;;14.98;10.30;;;;;;;;;;5071028;28;20048;-85
2022/07/26 10:32:55;;;;;;;10.10;9.20;;;;;;;;;;5071859;28;20028;-86
2022/07/26 10:35:42;;;;;;;10.45;9.43;;;;;;;;;;5065173;28;20020;-84
2022/07/26 10:38:12;;;;;;;10.18;9.27;;;;;;;;;;5075728;28;20043;-84
2022/07/26 10:40:59;;;;;;;11.50;9.43;;;;;;;;;;5066431;28;20039;-84
2022/07/26 10:43:26;;;;;;;11.13;10.07;;;;;;;;;;5076065;28;20495;-84
2022/07/26 10:46:16;;;;;;;10.75;9.75;;;;;;;;;;5075628;28;20030;-86
2022/07/26 10:48:58;;;;;;;11.07;9.85;;;;;;;;;;5075592;28;20039;-85
2022/07/26 10:51:31;;;;;;;10.73;9.70;;;;;;;;;;5069792;28;20024;-86
2022/07/26 10:54:04;;;;;;;11.65;10.07;;;;;;;;;;5076530;28;20020;-84
2022/07/26 10:56:29;;;;;;;11.48;8.90;;;;;;;;;;5069946;28;20055;-85
2022/07/26 10:58:56;;;;;;;10.88;9.55;;;;;;;;;;5075902;28;20063;-86
2022/07/26 11:01:22;;;;;;;10.32;9.43;;;;;;;;;;5082825;28;20024;-87
2022/07/26 11:03:47;;;;;;;10.77;8.98;;;;;;;;;;5077812;28;20036;-86
2022/07/26 11:06:18;;;;;;;10.02;9.00;;;;;;;;;;5085999;28;20387;-85
2022/07/26 11:08:46;;;;;;;9.20;8.30;;;;;;;;;;5073420;28;20024;-87
2022/07/26 11:11:12;;;;;;;11.90;8.82;;;;;;;;;;5072815;28;20025;-86
2022/07/26 11:13:39;;;;;;;11.30;9.18;;;;;;;;;;5080262;28;20022;-87
2022/07/26 11:16:07;;;;;;;11.25;9.05;;;;;;;;;;5089847;28;20486;-86
2022/07/26 11:18:37;;;;;;;10.60;9.60;;;;;;;;;;5084040;28;20039;-86
2022/07/26 11:21:12;;;;;;;9.60;8.70;;;;;;;;;;5083893;28;20421;-86
2022/07/26 11:23:45;;;;;;;10.50;9.05;;;;;;;;;;5077594;28;20035;-88
2022/07/26 11:26:19;;;;;;;16.75;9.07;;;;;;;;;;5070596;28;20032;-86
2022/07/26 11:28:59;;;;;;;9.52;7.82;;;;;;;;;;5074948;28;20476;-84
2022/07/26 11:31:27;;;;;;;;;;;;;;;;;;5075599;28;20375;-84
2022/07/26 11:33:53;;;;;;;8.88;7.65;;;;;;;;;;5077337;28;19923;-85
2022/07/26 11:36:39;;;;;;;8.77;6.95;;;;;;;;;;5071424;28;20036;-85
2022/07/26 11:39:20;;;;;;;8.13;7.32;;;;;;;;;;5082643;28;20062;-86
2022/07/26 11:41:45;;;;;;;8.88;7.97;;;;;;;;;;5075436;28;20023;-85
2022/07/26 11:44:19;;;;;;;10.07;7.68;;;;;;;;;;5070634;28;20032;-87
2022/07/26 11:46:47;;;;;;;8.02;7.22;;;;;;;;;;5078450;28;20028;-84
2022/07/26 11:49:27;;;;;;;7.60;6.78;;;;;;;;;;5078573;28;20032;-86
2022/07/26 11:51:58;;;;;;;7.32;6.63;;;;;;;;;;5079631;28;20025;-86
2022/07/26 11:54:29;;;;;;;10.32;7.93;;;;;;;;;;5074615;28;20442;-86
2022/07/26 11:57:02;;;;;;;9.63;7.60;;;;;;;;;;5082492;28;20021;-87
2022/07/26 11:59:30;;;;;;;7.57;6.88;;;;;;;;;;5075997;28;20107;-87
2022/07/26 12:01:57;;;;;;;9.75;7.30;;;;;;;;;;5074100;28;20101;-87
2022/07/26 12:04:31;;;;;;;7.45;6.72;;;;;;;;;;5087241;28;20471;-87
2022/07/26 12:06:58;;;;;;;7.50;6.88;;;;;;;;;;5079448;28;20028;-85
2022/07/26 12:09:49;;;;;;;7.03;6.32;;;;;;;;;;5072093;28;20460;-85
2022/07/26 12:12:23;;;;;;;7.15;6.53;;;;;;;;;;5066209;28;20031;-83
2022/07/26 12:14:57;;;;;;;7.10;5.68;;;;;;;;;;5065917;28;20025;-84
2022/07/26 12:17:23;;;;;;;6.57;5.90;;;;;;;;;;5070103;28;20063;-84
2022/07/26 12:19:48;;;;;;;6.40;5.80;;;;;;;;;;5080477;28;20483;-85
2022/07/26 12:22:16;;;;;;;6.57;5.97;;;;;;;;;;5073805;28;20032;-84
2022/07/26 12:24:52;;;;;;;6.15;5.53;;;;;;;;;;5068126;28;20021;-87
2022/07/26 12:27:23;;;;;;;6.93;5.88;;;;;;;;;;5072911;28;20055;-85
2022/07/26 12:29:51;;;;;;;6.28;5.63;;;;;;;;;;5066790;28;20032;-85
2022/07/26 12:32:22;;;;;;;7.70;5.63;;;;;;;;;;5058946;28;20029;-84
2022/07/26 12:34:55;;;;;;;7.00;4.65;;;;;;;;;;5059129;28;20025;-83
2022/07/26 12:37:22;;;;;;;6.15;5.07;;;;;;;;;;5069167;28;20388;-86
2022/07/26 12:40:08;;;;;;;5.45;4.88;;;;;;;;;;5078639;28;20039;-84
2022/07/26 12:42:49;;;;;;;5.03;4.63;;;;;;;;;;5073093;28;20070;-87
2022/07/26 12:45:17;;;;;;;4.93;4.38;;;;;;;;;;5072450;28;20107;-85
2022/07/26 12:47:46;;;;;;;5.13;4.32;;;;;;;;;;5071931;28;20040;-84
2022/07/26 12:50:12;;;;;;;5.07;4.05;;;;;;;;;;5070446;28;20123;-85
2022/07/26 12:52:39;;;;;;;5.68;4.07;;;;;;;;;;5070737;28;20086;-86
2022/07/26 12:55:06;;;;;;;5.95;5.18;;;;;;;;;;5073956;28;20088;-85
2022/07/26 12:57:32;;;;;;;10.07;5.90;;;;;;;;;;5072800;28;20033;-86
2022/07/26 12:59:58;;;;;;;18.58;6.82;;;;;;;;;;5077832;28;20047;-87
2022/07/26 13:02:24;;;;;;;5.95;5.35;;;;;;;;;;5077493;28;20974;-87
2022/07/26 13:04:50;;;;;;;5.75;5.10;;;;;;;;;;5074514;28;20035;-85
2022/07/26 13:07:17;;;;;;;5.88;5.38;;;;;;;;;;5067202;28;20363;-85
2022/07/26 13:09:44;;;;;;;6.18;5.63;;;;;;;;;;5070781;28;20036;-86
2022/07/26 13:12:11;;;;;;;5.63;4.95;;;;;;;;;;5072921;28;20482;-86
2022/07/26 13:14:37;;;;;;;5.75;5.25;;;;;;;;;;5074004;28;20454;-87
2022/07/26 13:17:04;;;;;;;5.95;5.10;;;;;;;;;;5070759;28;20111;-86
2022/07/26 13:19:30;;;;;;;9.88;5.43;;;;;;;;;;5075227;28;20024;-84
2022/07/26 13:21:57;;;;;;;6.07;5.22;;;;;;;;;;5072059;28;20394;-88
2022/07/26 13:24:24;;;;;;;6.10;5.60;;;;;;;;;;5069532;28;20460;-86
2022/07/26 13:26:49;;;;;;;6.20;5.70;;;;;;;;;;5074986;28;20023;-86
2022/07/26 13:29:15;;;;;;;6.68;5.97;;;;;;;;;;5070114;28;20534;-86
2022/07/26 13:31:41;;;;;;;6.05;5.38;;;;;;;;;;5076441;28;20077;-86
2022/07/26 13:34:07;;;;;;;6.47;5.78;;;;;;;;;;5063889;28;20030;-85
2022/07/26 13:36:32;;;;;;;7.18;6.32;;;;;;;;;;5066314;28;20035;-86
2022/07/26 13:38:58;;;;;;;7.28;6.40;;;;;;;;;;5071931;28;20027;-83
2022/07/26 13:41:23;;;;;;;6.63;6.03;;;;;;;;;;5065857;28;20483;-84
2022/07/26 13:43:50;;;;;;;10.23;6.25;;;;;;;;;;5069269;28;20464;-83
2022/07/26 13:46:16;;;;;;;7.35;6.15;;;;;;;;;;5072228;28;20032;-83
2022/07/26 13:48:41;;;;;;;6.50;6.00;;;;;;;;;;5077606;28;20032;-84
2022/07/26 13:51:07;;;;;;;6.30;5.70;;;;;;;;;;5067455;28;20040;-84
2022/07/26 13:53:35;;;;;;;6.88;6.22;;;;;;;;;;5069138;28;20029;-84
2022/07/26 13:56:00;;;;;;;6.50;6.00;;;;;;;;;;5069504;28;20081;-85
2022/07/26 13:58:26;;;;;;;6.55;5.88;;;;;;;;;;5067297;28;20028;-84
2022/07/26 14:00:51;;;;;;;6.60;6.00;;;;;;;;;;5072874;28;20028;-85
2022/07/26 14:03:17;;;;;;;6.85;6.25;;;;;;;;;;5070334;28;20045;-84
2022/07/26 14:05:44;;;;;;;6.75;6.15;;;;;;;;;;5065374;28;20032;-87
2022/07/26 14:08:09;;;;;;;6.45;5.95;;;;;;;;;;5067629;28;20058;-87
2022/07/26 14:10:38;;;;;;;6.63;6.03;;;;;;;;;;5072201;28;20103;-85
2022/07/26 14:13:05;;;;;;;6.55;5.95;;;;;;;;;;5077411;28;20124;-84
2022/07/26 14:15:30;;;;;;;7.45;6.85;;;;;;;;;;5077651;28;20089;-85
2022/07/26 14:17:56;;;;;;;7.07;6.25;;;;;;;;;;5076681;28;20396;-84
2022/07/26 14:20:21;;;;;;;7.90;6.22;;;;;;;;;;5083207;28;20099;-84
2022/07/26 14:22:47;;;;;;;7.65;6.00;;;;;;;;;;5075165;28;20050;-85
2022/07/26 14:25:13;;;;;;;6.93;6.32;;;;;;;;;;5071550;28;20032;-85
2022/07/26 14:27:38;;;;;;;7.07;6.47;;;;;;;;;;5068610;28;20024;-86
2022/07/26 14:30:05;;;;;;;7.00;6.40;;;;;;;;;;5062568;28;20021;-86
2022/07/26 14:32:30;;;;;;;8.75;6.15;;;;;;;;;;5079340;28;20032;-85
2022/07/26 14:34:56;;;;;;;6.90;6.30;;;;;;;;;;5078061;28;20027;-83
2022/07/26 14:37:21;;;;;;;8.90;7.00;;;;;;;;;;5074684;28;20089;-86
2022/07/26 14:39:47;;;;;;;7.53;6.82;;;;;;;;;;5069242;28;20094;-83
2022/07/26 14:42:12;;;;;;;7.75;6.85;;;;;;;;;;5072189;28;20548;-84
2022/07/26 14:44:37;;;;;;;7.00;6.40;;;;;;;;;;5080631;28;20479;-83
2022/07/26 14:47:03;;;;;;;8.45;6.80;;;;;;;;;;5077274;28;20423;-82
2022/07/26 14:49:28;;;;;;;8.35;6.47;;;;;;;;;;5078439;28;20024;-82
2022/07/26 14:51:54;;;;;;;12.60;6.88;;;;;;;;;;5074101;28;20032;-81
2022/07/26 14:54:19;;;;;;;7.38;6.65;;;;;;;;;;5077061;28;20371;-82